createdAt,value
2019-03-21T00:02:35.823Z,3.40
2019-03-21T00:05:13.316Z,3.40
2019-03-21T00:07:50.636Z,3.40
2019-03-21T00:10:34.160Z,3.40
2019-03-21T00:13:11.448Z,3.40
2019-03-21T00:15:58.284Z,3.40
2019-03-21T00:18:35.567Z,3.40
2019-03-21T00:21:13.065Z,3.40
2019-03-21T00:23:50.599Z,3.40
2019-03-21T00:26:28.073Z,3.40
2019-03-21T00:29:05.344Z,3.30
2019-03-21T00:31:43.120Z,3.30
2019-03-21T00:34:20.413Z,3.30
2019-03-21T00:36:57.688Z,3.30
2019-03-21T00:39:35.473Z,3.40
2019-03-21T00:42:13.623Z,3.40
2019-03-21T00:44:50.896Z,3.40
2019-03-21T00:47:28.252Z,3.40
2019-03-21T00:50:08.789Z,3.40
2019-03-21T00:52:49.004Z,3.50
2019-03-21T00:55:41.222Z,3.50
2019-03-21T00:58:18.501Z,3.50
2019-03-21T01:00:58.778Z,3.50
2019-03-21T01:03:36.580Z,3.50
2019-03-21T01:06:13.780Z,3.50
2019-03-21T01:08:51.133Z,3.50
2019-03-21T01:11:28.404Z,3.50
2019-03-21T01:14:05.648Z,3.50
2019-03-21T01:16:42.962Z,3.50
2019-03-21T01:19:20.164Z,3.50
2019-03-21T01:21:57.375Z,3.50
2019-03-21T01:24:34.745Z,3.50
2019-03-21T01:27:12.038Z,3.40
2019-03-21T01:29:49.673Z,3.50
2019-03-21T01:32:27.543Z,3.50
2019-03-21T01:35:06.744Z,3.50
2019-03-21T01:37:44.038Z,3.50
2019-03-21T01:40:27.341Z,3.50
2019-03-21T01:43:05.125Z,3.50
2019-03-21T01:45:42.407Z,3.50
2019-03-21T01:48:19.705Z,3.40
2019-03-21T01:50:57.121Z,3.40
2019-03-21T01:53:34.365Z,3.40
2019-03-21T01:56:11.695Z,3.40
2019-03-21T01:58:49.060Z,3.40
2019-03-21T02:01:26.401Z,3.30
2019-03-21T02:04:03.612Z,3.30
2019-03-21T02:06:40.991Z,3.30
2019-03-21T02:09:18.319Z,3.20
2019-03-21T02:11:55.577Z,3.20
2019-03-21T02:14:32.899Z,3.20
2019-03-21T02:17:10.222Z,3.10
2019-03-21T02:19:47.532Z,3.10
2019-03-21T02:22:26.149Z,3.10
2019-03-21T02:25:04.052Z,3.10
2019-03-21T02:27:41.372Z,3.10
2019-03-21T02:30:30.402Z,3.10
2019-03-21T02:33:22.862Z,3.10
2019-03-21T02:36:00.571Z,3.10
2019-03-21T02:38:37.934Z,3.20
2019-03-21T02:41:16.607Z,3.20
2019-03-21T02:43:53.918Z,3.30
2019-03-21T02:46:31.257Z,3.30
2019-03-21T02:49:08.521Z,3.30
2019-03-21T02:51:45.823Z,3.40
2019-03-21T02:54:23.127Z,3.40
2019-03-21T02:57:00.396Z,3.50
2019-03-21T02:59:37.713Z,3.50
2019-03-21T03:02:14.916Z,3.50
2019-03-21T03:04:52.229Z,3.60
2019-03-21T03:07:29.563Z,3.70
2019-03-21T03:10:12.824Z,3.70
2019-03-21T03:12:50.138Z,3.80
2019-03-21T03:15:32.471Z,3.80
2019-03-21T03:18:11.701Z,3.90
2019-03-21T03:20:49.059Z,4.00
2019-03-21T03:23:26.523Z,4.00
2019-03-21T03:26:04.234Z,4.00
2019-03-21T03:28:46.531Z,4.00
2019-03-21T03:31:23.921Z,4.10
2019-03-21T03:34:01.329Z,4.10
2019-03-21T03:36:38.687Z,4.20
2019-03-21T03:39:16.178Z,4.20
2019-03-21T03:41:53.624Z,4.20
2019-03-21T03:44:30.942Z,4.20
2019-03-21T03:47:08.174Z,4.30
2019-03-21T03:49:45.546Z,4.30
2019-03-21T03:52:22.876Z,4.30
2019-03-21T03:55:00.483Z,4.30
2019-03-21T03:57:37.884Z,4.40
2019-03-21T04:00:20.545Z,4.40
2019-03-21T04:02:57.881Z,4.40
2019-03-21T04:05:35.100Z,4.40
2019-03-21T04:08:12.591Z,4.50
2019-03-21T04:10:53.011Z,4.50
2019-03-21T04:16:14.451Z,4.50
2019-03-21T04:18:51.791Z,4.50
2019-03-21T04:21:29.077Z,4.60
2019-03-21T04:24:06.440Z,4.60
2019-03-21T04:26:43.799Z,4.60
2019-03-21T04:29:22.950Z,4.70
2019-03-21T04:32:00.280Z,4.70
2019-03-21T04:34:37.479Z,4.70
2019-03-21T04:37:14.812Z,4.70
2019-03-21T04:39:52.081Z,4.70
2019-03-21T04:42:29.398Z,4.70
2019-03-21T04:45:09.956Z,4.80
2019-03-21T04:47:49.757Z,4.80
2019-03-21T04:50:32.048Z,4.80
2019-03-21T04:53:09.339Z,4.80
2019-03-21T04:55:46.883Z,4.80
2019-03-21T04:58:24.197Z,4.90
2019-03-21T05:01:01.682Z,4.90
2019-03-21T05:03:38.899Z,4.90
2019-03-21T05:06:16.089Z,4.90
2019-03-21T05:08:53.345Z,4.90
2019-03-21T05:11:30.621Z,4.90
2019-03-21T05:14:07.971Z,5.00
2019-03-21T05:16:45.264Z,5.00
2019-03-21T05:19:22.627Z,5.00
2019-03-21T05:21:59.910Z,5.00
2019-03-21T05:24:37.269Z,5.00
2019-03-21T05:27:14.433Z,5.10
2019-03-21T05:29:51.788Z,5.10
2019-03-21T05:32:29.072Z,5.10
2019-03-21T05:35:09.888Z,5.20
2019-03-21T05:37:47.197Z,5.20
2019-03-21T05:40:24.453Z,5.30
2019-03-21T05:43:07.957Z,5.30
2019-03-21T05:45:45.215Z,5.40
2019-03-21T05:48:22.448Z,5.40
2019-03-21T05:50:59.738Z,5.50
2019-03-21T05:53:37.103Z,5.50
2019-03-21T05:56:14.418Z,5.60
2019-03-21T05:58:51.785Z,5.70
2019-03-21T06:01:28.966Z,5.70
2019-03-21T06:04:06.180Z,5.80
2019-03-21T06:06:46.729Z,5.90
2019-03-21T06:09:24.062Z,6.00
2019-03-21T06:12:03.262Z,6.10
2019-03-21T06:14:49.709Z,6.10
2019-03-21T06:17:27.112Z,6.30
2019-03-21T06:20:19.642Z,6.30
2019-03-21T06:23:03.108Z,6.50
2019-03-21T06:25:49.830Z,6.50
2019-03-21T06:28:27.139Z,6.60
2019-03-21T06:31:04.365Z,6.70
2019-03-21T06:33:41.666Z,6.80
2019-03-21T06:36:18.952Z,6.90
2019-03-21T06:38:56.237Z,6.90
2019-03-21T06:41:34.963Z,7.00
2019-03-21T06:44:12.249Z,7.10
2019-03-21T06:46:49.993Z,7.20
2019-03-21T06:49:27.249Z,7.30
2019-03-21T06:52:04.603Z,7.40
2019-03-21T06:54:41.928Z,7.50
2019-03-21T06:57:21.676Z,7.60
2019-03-21T06:59:59.167Z,7.70
2019-03-21T07:02:36.749Z,7.90
2019-03-21T07:05:14.297Z,8.00
2019-03-21T07:07:51.763Z,8.10
2019-03-21T07:10:30.705Z,8.30
2019-03-21T07:13:08.271Z,8.40
2019-03-21T07:15:47.257Z,8.50
2019-03-21T07:18:24.677Z,8.60
2019-03-21T07:21:02.114Z,8.70
2019-03-21T07:23:39.577Z,8.80
2019-03-21T07:26:17.133Z,8.80
2019-03-21T07:28:55.291Z,8.90
2019-03-21T07:31:32.727Z,8.90
2019-03-21T07:34:10.311Z,9.00
2019-03-21T07:37:07.317Z,9.00
2019-03-21T07:39:45.067Z,9.10
2019-03-21T07:42:23.174Z,9.10
2019-03-21T07:45:00.930Z,9.10
2019-03-21T07:47:38.661Z,9.20
2019-03-21T07:50:16.126Z,9.20
2019-03-21T07:52:53.614Z,9.20
2019-03-21T07:55:31.094Z,9.20
2019-03-21T07:58:08.593Z,9.20
2019-03-21T08:00:45.999Z,9.20
2019-03-21T08:03:23.426Z,9.30
2019-03-21T08:06:00.859Z,9.30
2019-03-21T08:08:39.458Z,9.30
2019-03-21T08:11:17.006Z,9.30
2019-03-21T08:13:54.327Z,9.40
2019-03-21T08:16:31.799Z,9.40
2019-03-21T08:19:09.276Z,9.40
2019-03-21T08:21:46.660Z,9.50
2019-03-21T08:24:24.075Z,9.50
2019-03-21T08:27:01.443Z,9.50
2019-03-21T08:29:38.959Z,9.60
2019-03-21T08:32:16.680Z,9.60
2019-03-21T08:34:54.527Z,9.70
2019-03-21T08:37:32.084Z,9.60
2019-03-21T08:40:09.392Z,9.70
2019-03-21T08:42:46.796Z,9.70
2019-03-21T08:45:24.145Z,9.70
2019-03-21T08:48:01.882Z,9.70
2019-03-21T08:50:39.249Z,9.90
2019-03-21T08:53:16.758Z,9.90
2019-03-21T08:55:54.711Z,9.90
2019-03-21T08:58:32.209Z,9.90
2019-03-21T09:01:09.588Z,9.90
2019-03-21T09:03:47.114Z,10.00
2019-03-21T09:06:24.455Z,10.10
2019-03-21T09:09:01.944Z,10.10
2019-03-21T09:11:39.282Z,10.10
2019-03-21T09:14:16.741Z,10.10
2019-03-21T09:16:54.256Z,10.10
2019-03-21T09:19:32.305Z,10.00
2019-03-21T09:22:09.734Z,10.00
2019-03-21T09:24:47.265Z,10.10
2019-03-21T09:27:24.698Z,10.10
2019-03-21T09:30:02.287Z,10.20
2019-03-21T09:32:39.950Z,10.20
2019-03-21T09:35:17.967Z,10.30
2019-03-21T09:37:55.971Z,10.40
2019-03-21T09:40:33.516Z,10.50
2019-03-21T09:43:10.868Z,10.50
2019-03-21T09:45:49.400Z,10.60
2019-03-21T09:48:28.465Z,10.60
2019-03-21T09:51:05.948Z,10.80
2019-03-21T09:53:43.283Z,10.90
2019-03-21T09:56:20.801Z,11.10
2019-03-21T09:58:58.205Z,11.30
2019-03-21T10:01:37.285Z,11.50
2019-03-21T10:04:14.822Z,11.60
2019-03-21T10:06:52.372Z,11.80
2019-03-21T10:09:30.256Z,12.00
2019-03-21T10:12:07.701Z,12.00
2019-03-21T10:14:45.136Z,12.10
2019-03-21T10:17:22.638Z,12.10
2019-03-21T10:20:00.049Z,12.10
2019-03-21T10:22:37.722Z,12.10
2019-03-21T10:25:15.382Z,12.10
2019-03-21T10:27:52.992Z,12.00
2019-03-21T10:30:38.057Z,11.90
2019-03-21T10:33:15.548Z,12.00
2019-03-21T10:35:52.946Z,12.00
2019-03-21T10:38:30.485Z,12.10
2019-03-21T10:41:07.977Z,12.00
2019-03-21T10:43:46.166Z,12.10
2019-03-21T10:46:23.697Z,12.20
2019-03-21T10:49:01.265Z,12.20
2019-03-21T10:51:38.732Z,12.20
2019-03-21T10:54:16.241Z,12.20
2019-03-21T10:56:53.682Z,12.10
2019-03-21T10:59:31.227Z,12.10
2019-03-21T11:02:08.734Z,12.10
2019-03-21T11:04:46.280Z,12.10
2019-03-21T11:07:22.888Z,12.00
2019-03-21T11:10:00.346Z,12.10
2019-03-21T11:12:37.829Z,12.10
2019-03-21T11:15:15.218Z,12.20
2019-03-21T11:17:52.709Z,12.10
2019-03-21T11:20:32.564Z,12.10
2019-03-21T11:23:10.077Z,12.20
2019-03-21T11:25:47.464Z,12.20
2019-03-21T11:28:24.894Z,12.20
2019-03-21T11:31:02.293Z,12.30
2019-03-21T11:33:39.704Z,12.50
2019-03-21T11:36:17.135Z,12.50
2019-03-21T11:38:54.798Z,12.60
2019-03-21T11:41:32.248Z,12.60
2019-03-21T11:44:09.777Z,12.80
2019-03-21T11:46:47.234Z,12.90
2019-03-21T11:49:24.541Z,13.00
2019-03-21T11:52:02.444Z,13.10
2019-03-21T11:54:39.997Z,13.20
2019-03-21T11:57:17.420Z,13.20
2019-03-21T11:59:54.893Z,13.20
2019-03-21T12:05:20.397Z,13.20
2019-03-21T12:07:57.886Z,13.20
2019-03-21T12:10:35.497Z,13.10
2019-03-21T12:13:12.903Z,13.00
2019-03-21T12:15:50.377Z,12.90
2019-03-21T12:18:27.954Z,12.80
2019-03-21T12:21:05.485Z,12.80
2019-03-21T12:23:43.115Z,12.80
2019-03-21T12:26:20.533Z,12.80
2019-03-21T12:28:57.914Z,12.90
2019-03-21T12:31:35.163Z,13.00
2019-03-21T12:34:12.570Z,13.10
2019-03-21T12:36:50.002Z,13.20
2019-03-21T12:39:28.977Z,13.10
2019-03-21T12:42:06.589Z,13.10
2019-03-21T12:44:44.425Z,13.20
2019-03-21T12:47:30.827Z,13.20
2019-03-21T12:50:00.971Z,13.30
2019-03-21T12:52:41.577Z,13.30
2019-03-21T12:55:18.567Z,13.30
2019-03-21T12:57:57.021Z,13.20
2019-03-21T13:00:40.766Z,13.30
2019-03-21T13:03:18.116Z,13.20
2019-03-21T13:05:55.568Z,13.20
2019-03-21T13:08:33.955Z,13.30
2019-03-21T13:11:11.775Z,13.40
2019-03-21T13:13:49.209Z,13.50
2019-03-21T13:16:26.743Z,13.60
2019-03-21T13:19:04.272Z,13.60
2019-03-21T13:21:41.704Z,13.60
2019-03-21T13:24:19.667Z,13.40
2019-03-21T13:26:59.966Z,13.30
2019-03-21T13:29:36.657Z,13.30
2019-03-21T13:32:14.137Z,13.30
2019-03-21T13:34:51.674Z,13.40
2019-03-21T13:37:29.114Z,13.30
2019-03-21T13:40:07.235Z,13.30
2019-03-21T13:42:44.650Z,13.40
2019-03-21T13:45:22.130Z,13.30
2019-03-21T13:47:59.561Z,13.40
2019-03-21T13:50:36.973Z,13.40
2019-03-21T13:53:18.966Z,13.40
2019-03-21T13:55:54.846Z,13.30
2019-03-21T13:58:36.525Z,13.30
2019-03-21T14:01:18.678Z,13.30
2019-03-21T14:03:53.445Z,13.30
2019-03-21T14:06:30.900Z,13.20
2019-03-21T14:09:08.647Z,13.20
2019-03-21T14:11:46.092Z,13.20
2019-03-21T14:14:23.552Z,13.30
2019-03-21T14:17:00.848Z,13.30
2019-03-21T14:19:38.238Z,13.30
2019-03-21T14:22:15.607Z,13.20
2019-03-21T14:24:53.058Z,13.20
2019-03-21T14:27:30.494Z,13.20
2019-03-21T14:30:13.444Z,13.10
2019-03-21T14:32:50.824Z,13.10
2019-03-21T14:35:29.804Z,13.10
2019-03-21T14:38:07.105Z,13.10
2019-03-21T14:40:44.525Z,13.10
2019-03-21T14:43:21.882Z,13.00
2019-03-21T14:46:00.190Z,13.10
2019-03-21T14:48:37.547Z,13.10
2019-03-21T14:51:14.872Z,13.10
2019-03-21T14:53:52.149Z,13.10
2019-03-21T14:56:29.549Z,13.20
2019-03-21T14:59:06.828Z,13.20
2019-03-21T15:01:45.149Z,13.30
2019-03-21T15:04:23.910Z,13.40
2019-03-21T15:07:01.624Z,13.40
2019-03-21T15:09:39.003Z,13.30
2019-03-21T15:12:16.286Z,13.30
2019-03-21T15:14:54.248Z,13.30
2019-03-21T15:17:31.545Z,13.30
2019-03-21T15:20:13.962Z,13.20
2019-03-21T15:22:51.658Z,13.10
2019-03-21T15:25:29.042Z,13.10
2019-03-21T15:28:06.302Z,13.10
2019-03-21T15:30:43.564Z,13.10
2019-03-21T15:33:20.850Z,13.10
2019-03-21T15:35:58.197Z,13.10
2019-03-21T15:38:36.222Z,13.10
2019-03-21T15:41:13.480Z,13.10
2019-03-21T15:43:50.836Z,13.10
2019-03-21T15:46:28.834Z,13.10
2019-03-21T15:49:06.087Z,13.10
2019-03-21T15:51:43.387Z,13.20
2019-03-21T15:54:20.672Z,13.20
2019-03-21T15:56:58.033Z,13.10
2019-03-21T15:59:35.446Z,13.10
2019-03-21T16:02:12.893Z,13.20
2019-03-21T16:04:50.323Z,13.20
2019-03-21T16:07:29.215Z,13.20
2019-03-21T16:10:08.331Z,13.20
2019-03-21T16:12:45.730Z,13.20
2019-03-21T16:15:23.657Z,13.10
2019-03-21T16:18:01.057Z,13.00
2019-03-21T16:20:38.657Z,12.90
2019-03-21T16:23:16.496Z,12.90
2019-03-21T16:25:59.047Z,12.90
2019-03-21T16:28:36.575Z,12.80
2019-03-21T16:31:14.072Z,12.80
2019-03-21T16:33:51.546Z,12.70
2019-03-21T16:36:29.060Z,12.70
2019-03-21T16:39:08.326Z,12.60
2019-03-21T16:41:45.777Z,12.50
2019-03-21T16:44:23.295Z,12.50
2019-03-21T16:47:00.734Z,12.40
2019-03-21T16:49:38.204Z,12.40
2019-03-21T16:52:16.118Z,12.30
2019-03-21T16:54:54.234Z,12.20
2019-03-21T16:57:31.585Z,12.20
2019-03-21T17:00:17.601Z,12.10
2019-03-21T17:02:54.040Z,12.00
2019-03-21T17:05:31.483Z,11.90
2019-03-21T17:08:11.514Z,11.90
2019-03-21T17:10:48.009Z,11.80
2019-03-21T17:13:39.217Z,11.70
2019-03-21T17:16:17.408Z,11.60
2019-03-21T17:18:54.791Z,11.40
2019-03-21T17:21:32.498Z,11.30
2019-03-21T17:24:10.040Z,11.20
2019-03-21T17:26:47.435Z,11.10
2019-03-21T17:29:24.869Z,11.10
2019-03-21T17:32:13.466Z,11.00
2019-03-21T17:34:54.039Z,10.90
2019-03-21T17:37:31.431Z,10.80
2019-03-21T17:40:15.882Z,10.80
2019-03-21T17:42:54.929Z,10.70
2019-03-21T17:45:32.646Z,10.50
2019-03-21T17:48:10.671Z,10.40
2019-03-21T17:50:48.079Z,10.30
2019-03-21T17:53:27.725Z,10.20
2019-03-21T17:56:05.028Z,10.10
2019-03-21T17:58:42.389Z,9.90
2019-03-21T18:01:19.668Z,9.80
2019-03-21T18:03:57.069Z,9.70
2019-03-21T18:06:34.366Z,9.60
2019-03-21T18:09:13.414Z,9.50
2019-03-21T18:11:50.711Z,9.40
2019-03-21T18:14:28.060Z,9.40
2019-03-21T18:17:05.425Z,9.30
2019-03-21T18:19:42.825Z,9.20
2019-03-21T18:22:20.212Z,9.10
2019-03-21T18:24:57.644Z,9.00
2019-03-21T18:27:35.032Z,8.90
2019-03-21T18:30:12.372Z,8.70
2019-03-21T18:32:49.673Z,8.60
2019-03-21T18:35:27.013Z,8.50
2019-03-21T18:38:04.339Z,8.40
2019-03-21T18:40:41.664Z,8.40
2019-03-21T18:43:19.415Z,8.30
2019-03-21T18:45:56.800Z,8.20
2019-03-21T18:48:34.151Z,8.00
2019-03-21T18:51:11.757Z,7.80
2019-03-21T18:53:50.526Z,7.70
2019-03-21T18:56:27.981Z,7.60
2019-03-21T18:59:05.303Z,7.40
2019-03-21T19:01:42.876Z,7.40
2019-03-21T19:04:20.410Z,7.30
2019-03-21T19:06:57.935Z,7.20
2019-03-21T19:09:35.258Z,7.10
2019-03-21T19:12:14.082Z,7.00
2019-03-21T19:14:52.373Z,7.00
2019-03-21T19:17:29.778Z,7.00
2019-03-21T19:20:09.929Z,6.90
2019-03-21T19:22:47.869Z,6.90
2019-03-21T19:25:25.168Z,6.90
2019-03-21T19:28:02.586Z,6.90
2019-03-21T19:30:39.921Z,6.80
2019-03-21T19:33:18.409Z,6.80
2019-03-21T19:35:56.005Z,6.80
2019-03-21T19:38:33.374Z,6.80
2019-03-21T19:41:10.808Z,6.70
2019-03-21T19:43:48.212Z,6.70
2019-03-21T19:46:25.586Z,6.70
2019-03-21T19:49:02.946Z,6.70
2019-03-21T19:51:40.260Z,6.60
2019-03-21T19:54:17.569Z,6.60
2019-03-21T19:56:54.941Z,6.50
2019-03-21T19:59:32.509Z,6.40
2019-03-21T20:02:09.861Z,6.40
2019-03-21T20:04:48.365Z,6.30
2019-03-21T20:07:25.878Z,6.30
2019-03-21T20:10:03.749Z,6.30
2019-03-21T20:12:41.131Z,6.20
2019-03-21T20:15:21.045Z,6.20
2019-03-21T20:18:02.596Z,6.20
2019-03-21T20:20:39.977Z,6.20
2019-03-21T20:23:17.674Z,6.10
2019-03-21T20:25:55.084Z,6.10
2019-03-21T20:28:32.505Z,6.10
2019-03-21T20:31:10.040Z,6.10
2019-03-21T20:33:47.323Z,6.00
2019-03-21T20:36:24.692Z,6.00
2019-03-21T20:39:04.263Z,6.00
2019-03-21T20:41:41.687Z,5.90
2019-03-21T20:44:19.048Z,5.90
2019-03-21T20:46:56.397Z,5.90
2019-03-21T20:49:33.731Z,5.80
2019-03-21T20:52:11.077Z,5.80
2019-03-21T20:54:48.686Z,5.70
2019-03-21T20:57:26.404Z,5.70
2019-03-21T21:00:11.060Z,5.60
2019-03-21T21:02:48.612Z,5.60
2019-03-21T21:05:25.929Z,5.60
2019-03-21T21:08:03.313Z,5.50
2019-03-21T21:10:40.614Z,5.50
2019-03-21T21:13:17.847Z,5.50
2019-03-21T21:15:55.151Z,5.40
2019-03-21T21:18:32.537Z,5.30
2019-03-21T21:21:09.902Z,5.30
2019-03-21T21:23:47.351Z,5.30
2019-03-21T21:26:24.651Z,5.20
2019-03-21T21:29:02.532Z,5.20
2019-03-21T21:31:39.857Z,5.10
2019-03-21T21:34:17.186Z,5.10
2019-03-21T21:36:54.429Z,5.10
2019-03-21T21:39:31.756Z,5.00
2019-03-21T21:42:09.105Z,5.00
2019-03-21T21:44:46.525Z,5.00
2019-03-21T21:47:23.874Z,5.00
2019-03-21T21:50:01.520Z,4.90
2019-03-21T21:52:42.103Z,4.90
2019-03-21T21:55:18.228Z,4.80
2019-03-21T21:57:56.110Z,4.80
2019-03-21T22:00:37.760Z,4.70
2019-03-21T22:03:15.825Z,4.60
2019-03-21T22:05:53.733Z,4.60
2019-03-21T22:08:31.180Z,4.50
2019-03-21T22:11:08.514Z,4.40
2019-03-21T22:13:45.910Z,4.30
2019-03-21T22:16:23.408Z,4.20
2019-03-21T22:19:08.222Z,4.20
2019-03-21T22:21:45.652Z,4.10
2019-03-21T22:24:23.080Z,4.10
2019-03-21T22:27:00.513Z,4.00
2019-03-21T22:29:37.968Z,4.00
2019-03-21T22:32:15.268Z,3.90
2019-03-21T22:34:53.533Z,3.90
2019-03-21T22:37:30.872Z,3.90
2019-03-21T22:40:14.035Z,3.80
2019-03-21T22:42:51.377Z,3.80
2019-03-21T22:45:28.783Z,3.80
2019-03-21T22:48:06.125Z,3.70
2019-03-21T22:50:43.376Z,3.70
2019-03-21T22:53:20.868Z,3.70
2019-03-21T22:55:58.698Z,3.70
2019-03-21T22:58:36.632Z,3.70
2019-03-21T23:01:15.156Z,3.70
2019-03-21T23:03:53.133Z,3.70
2019-03-21T23:06:30.668Z,3.70
2019-03-21T23:09:08.533Z,3.70
2019-03-21T23:11:45.894Z,3.60
2019-03-21T23:14:23.323Z,3.50
2019-03-21T23:17:00.700Z,3.50
2019-03-21T23:19:38.114Z,3.40
2019-03-21T23:22:15.503Z,3.40
2019-03-21T23:24:53.041Z,3.30
2019-03-21T23:27:30.380Z,3.20
2019-03-21T23:30:10.680Z,3.20
2019-03-21T23:32:48.121Z,3.10
2019-03-21T23:35:25.492Z,3.00
2019-03-21T23:38:02.882Z,3.00
2019-03-21T23:40:42.161Z,3.00
2019-03-21T23:43:24.601Z,3.00
2019-03-21T23:46:02.063Z,3.00
2019-03-21T23:48:39.561Z,3.00
2019-03-21T23:51:17.018Z,3.00
2019-03-21T23:53:54.648Z,3.00
2019-03-21T23:56:32.123Z,3.00
2019-03-21T23:59:09.622Z,3.00
